DFOO/BOY METAR and TAF weather

Enter ICAO airport designator
Station Type Date Time Source
DFOO METAR 2018/01/16 09:00 UTC NOAA

DFOO 160900Z 04002KT 8000 NSC 26/01 Q1015


Station Type Date Time Source
DFOO Decoded METAR 2018/01/16 09:00 UTC NOAA

Bobo-Dioulasso, Burkina Faso (DFOO) 11-10N 004-19W 460M
Jan 16, 2018 - 04:00 AM EST / 2018.01.16 0900 UTC
Wind: from the NE (040 degrees) at 2 MPH (2 KT):0
Visibility: 4 mile(s):0
Temperature: 78 F (26 C)
Dew Point: 33 F (1 C)
Relative Humidity: 19%
Pressure (altimeter): 29.97 in. Hg (1015 hPa)
ob: DFOO 160900Z 04002KT 8000 NSC 26/01 Q1015
cycle: 9

Station Type Date Time Source
DFOO TAF 2018/01/16 06:21 UTC NOAA

TAF DFOO 160500Z 1606/1706 06008KT 8000 NSC
TEMPO 1606/1610 4000 DU


Example: see airport list